createdAt,value
2019-03-06T00:00:14.245Z,0.00
2019-03-06T00:01:14.229Z,0.00
2019-03-06T00:02:14.236Z,0.00
2019-03-06T00:03:14.206Z,0.00
2019-03-06T00:04:14.203Z,0.00
2019-03-06T00:05:14.187Z,0.00
2019-03-06T00:06:17.008Z,0.00
2019-03-06T00:07:14.219Z,0.00
2019-03-06T00:08:14.154Z,0.00
2019-03-06T00:09:14.151Z,0.00
2019-03-06T00:10:14.138Z,0.00
2019-03-06T00:11:14.123Z,0.00
2019-03-06T00:12:14.111Z,0.00
2019-03-06T00:13:14.116Z,0.00
2019-03-06T00:14:14.095Z,0.00
2019-03-06T00:15:14.085Z,0.00
2019-03-06T00:16:14.074Z,0.00
2019-03-06T00:17:14.062Z,0.00
2019-03-06T00:18:14.094Z,0.00
2019-03-06T00:19:14.038Z,0.00
2019-03-06T00:20:14.027Z,0.00
2019-03-06T00:21:14.020Z,0.00
2019-03-06T00:22:14.007Z,0.00
2019-03-06T00:23:14.000Z,0.00
2019-03-06T00:24:14.007Z,0.00
2019-03-06T00:25:13.974Z,0.00
2019-03-06T00:26:13.968Z,0.00
2019-03-06T00:27:13.958Z,0.00
2019-03-06T00:28:13.952Z,0.00
2019-03-06T00:29:13.944Z,0.00
2019-03-06T00:30:13.928Z,0.00
2019-03-06T00:31:13.910Z,0.00
2019-03-06T00:32:13.909Z,0.00
2019-03-06T00:33:13.890Z,0.00
2019-03-06T00:34:13.918Z,0.00
2019-03-06T00:35:13.867Z,0.00
2019-03-06T00:36:13.859Z,0.00
2019-03-06T00:37:13.852Z,0.00
2019-03-06T00:38:13.838Z,0.00
2019-03-06T00:39:13.826Z,0.00
2019-03-06T00:40:13.846Z,0.00
2019-03-06T00:41:13.818Z,0.00
2019-03-06T00:42:13.794Z,0.00
2019-03-06T00:43:13.788Z,0.00
2019-03-06T00:44:13.777Z,0.00
2019-03-06T00:45:13.762Z,0.00
2019-03-06T00:46:13.765Z,0.00
2019-03-06T00:47:13.741Z,0.00
2019-03-06T00:48:13.729Z,0.00
2019-03-06T00:49:13.732Z,0.00
2019-03-06T00:50:13.715Z,0.00
2019-03-06T00:51:13.740Z,0.00
2019-03-06T00:52:13.693Z,0.00
2019-03-06T00:53:13.682Z,0.00
2019-03-06T00:54:13.670Z,0.00
2019-03-06T00:55:13.661Z,0.00
2019-03-06T00:56:13.652Z,0.00
2019-03-06T00:57:13.657Z,0.00
2019-03-06T00:58:13.623Z,0.00
2019-03-06T00:59:13.619Z,0.00
2019-03-06T01:00:13.616Z,0.00
2019-03-06T01:01:13.617Z,0.00
2019-03-06T01:02:13.582Z,0.00
2019-03-06T01:03:13.577Z,0.00
2019-03-06T01:04:13.560Z,0.00
2019-03-06T01:05:13.550Z,0.00
2019-03-06T01:06:13.540Z,0.00
2019-03-06T01:07:13.543Z,0.00
2019-03-06T01:08:13.521Z,0.00
2019-03-06T01:09:13.508Z,0.00
2019-03-06T01:10:13.497Z,0.00
2019-03-06T01:11:13.493Z,0.00
2019-03-06T01:12:13.490Z,0.00
2019-03-06T01:13:13.469Z,0.00
2019-03-06T01:14:13.453Z,0.00
2019-03-06T01:15:13.442Z,0.00
2019-03-06T01:16:13.440Z,0.00
2019-03-06T01:17:13.438Z,0.00
2019-03-06T01:18:13.411Z,0.00
2019-03-06T01:19:13.401Z,0.00
2019-03-06T01:20:13.390Z,0.00
2019-03-06T01:21:13.385Z,0.00
2019-03-06T01:22:13.382Z,0.00
2019-03-06T01:23:13.364Z,0.00
2019-03-06T01:24:13.349Z,0.00
2019-03-06T01:25:13.337Z,0.00
2019-03-06T01:26:13.327Z,0.00
2019-03-06T01:27:13.329Z,0.00
2019-03-06T01:28:13.312Z,0.00
2019-03-06T01:29:13.298Z,0.00
2019-03-06T01:30:13.292Z,0.00
2019-03-06T01:31:13.279Z,0.00
2019-03-06T01:32:13.279Z,0.00
2019-03-06T01:33:13.254Z,0.00
2019-03-06T01:34:13.252Z,0.00
2019-03-06T01:35:13.236Z,0.00
2019-03-06T01:36:13.228Z,0.00
2019-03-06T01:37:13.242Z,0.00
2019-03-06T01:38:13.207Z,0.00
2019-03-06T01:39:13.195Z,0.00
2019-03-06T01:40:13.185Z,0.00
2019-03-06T01:41:13.171Z,0.00
2019-03-06T01:42:13.163Z,0.00
2019-03-06T01:43:13.169Z,0.00
2019-03-06T01:44:13.137Z,0.00
2019-03-06T01:45:13.146Z,0.00
2019-03-06T01:46:13.116Z,0.00
2019-03-06T01:47:13.107Z,0.00
2019-03-06T01:48:13.109Z,0.00
2019-03-06T01:49:13.098Z,0.00
2019-03-06T01:50:13.091Z,0.00
2019-03-06T01:51:13.064Z,0.00
2019-03-06T01:52:13.052Z,0.00
2019-03-06T01:53:13.046Z,0.00
2019-03-06T01:54:13.033Z,0.00
2019-03-06T01:55:13.034Z,0.00
2019-03-06T01:56:13.017Z,0.00
2019-03-06T01:57:12.999Z,0.00
2019-03-06T01:58:13.001Z,0.00
2019-03-06T01:59:12.983Z,0.00
2019-03-06T02:00:12.983Z,0.00
2019-03-06T02:01:12.962Z,0.00
2019-03-06T02:02:12.958Z,0.00
2019-03-06T02:03:12.945Z,0.00
2019-03-06T02:04:12.930Z,0.00
2019-03-06T02:05:12.920Z,0.00
2019-03-06T02:06:12.905Z,0.00
2019-03-06T02:07:12.894Z,0.00
2019-03-06T02:08:12.896Z,0.00
2019-03-06T02:09:12.872Z,0.00
2019-03-06T02:10:12.871Z,0.00
2019-03-06T02:11:12.852Z,0.00
2019-03-06T02:12:12.845Z,0.00
2019-03-06T02:13:12.844Z,0.00
2019-03-06T02:14:12.825Z,0.00
2019-03-06T02:15:12.808Z,0.00
2019-03-06T02:16:12.808Z,0.00
2019-03-06T02:17:12.790Z,0.00
2019-03-06T02:18:12.777Z,0.00
2019-03-06T02:19:12.782Z,0.00
2019-03-06T02:20:12.765Z,0.00
2019-03-06T02:21:12.750Z,0.00
2019-03-06T02:22:12.739Z,0.00
2019-03-06T02:23:12.764Z,0.00
2019-03-06T02:24:12.714Z,0.00
2019-03-06T02:25:12.710Z,0.00
2019-03-06T02:26:12.697Z,0.00
2019-03-06T02:27:12.687Z,0.00
2019-03-06T02:28:12.674Z,0.00
2019-03-06T02:29:12.674Z,0.00
2019-03-06T02:30:12.654Z,0.00
2019-03-06T02:31:12.684Z,0.00
2019-03-06T02:32:12.629Z,0.00
2019-03-06T02:33:12.624Z,0.00
2019-03-06T02:34:12.668Z,0.00
2019-03-06T02:35:12.599Z,0.00
2019-03-06T02:36:12.593Z,0.00
2019-03-06T02:37:12.592Z,0.00
2019-03-06T02:38:12.573Z,0.00
2019-03-06T02:39:12.558Z,0.00
2019-03-06T02:40:12.558Z,0.00
2019-03-06T02:41:12.535Z,0.00
2019-03-06T02:42:12.531Z,0.00
2019-03-06T02:43:12.515Z,0.00
2019-03-06T02:44:12.518Z,0.00
2019-03-06T02:45:12.508Z,0.00
2019-03-06T02:46:12.488Z,0.00
2019-03-06T02:47:12.478Z,0.00
2019-03-06T02:48:12.484Z,0.00
2019-03-06T02:49:12.452Z,0.00
2019-03-06T02:50:12.490Z,0.00
2019-03-06T02:51:12.437Z,0.00
2019-03-06T02:52:12.426Z,0.00
2019-03-06T02:53:12.420Z,0.00
2019-03-06T02:54:12.408Z,0.00
2019-03-06T02:55:12.398Z,0.00
2019-03-06T02:56:12.431Z,0.00
2019-03-06T02:57:12.375Z,0.00
2019-03-06T02:58:12.422Z,0.00
2019-03-06T02:59:12.362Z,0.00
2019-03-06T03:00:12.343Z,0.00
2019-03-06T03:01:12.334Z,0.00
2019-03-06T03:02:12.333Z,0.00
2019-03-06T03:03:12.311Z,0.00
2019-03-06T03:04:12.297Z,0.00
2019-03-06T03:05:12.316Z,0.00
2019-03-06T03:06:12.283Z,0.00
2019-03-06T03:07:12.289Z,0.00
2019-03-06T03:08:12.256Z,0.00
2019-03-06T03:09:12.246Z,0.00
2019-03-06T03:10:12.240Z,0.00
2019-03-06T03:11:12.231Z,0.00
2019-03-06T03:12:12.228Z,0.00
2019-03-06T03:13:12.215Z,0.00
2019-03-06T03:14:12.200Z,0.00
2019-03-06T03:15:12.193Z,0.00
2019-03-06T03:16:12.180Z,0.00
2019-03-06T03:17:12.178Z,0.00
2019-03-06T03:18:12.157Z,0.00
2019-03-06T03:19:12.146Z,0.00
2019-03-06T03:20:12.148Z,0.00
2019-03-06T03:21:12.126Z,0.00
2019-03-06T03:22:12.116Z,0.00
2019-03-06T03:23:12.106Z,0.00
2019-03-06T03:24:12.105Z,0.00
2019-03-06T03:25:12.093Z,0.00
2019-03-06T03:26:12.075Z,0.00
2019-03-06T03:27:12.077Z,0.00
2019-03-06T03:28:12.054Z,0.00
2019-03-06T03:29:12.050Z,0.00
2019-03-06T03:30:12.073Z,0.00
2019-03-06T03:31:12.029Z,0.00
2019-03-06T03:32:12.017Z,0.00
2019-03-06T03:33:12.021Z,0.00
2019-03-06T03:34:11.993Z,0.00
2019-03-06T03:35:11.983Z,0.00
2019-03-06T03:36:11.987Z,0.00
2019-03-06T03:37:11.962Z,0.00
2019-03-06T03:38:11.950Z,0.00
2019-03-06T03:39:11.949Z,0.00
2019-03-06T03:40:11.931Z,0.00
2019-03-06T03:41:11.954Z,0.00
2019-03-06T03:42:11.907Z,0.00
2019-03-06T03:43:11.895Z,0.00
2019-03-06T03:44:11.883Z,0.00
2019-03-06T03:45:11.883Z,0.00
2019-03-06T03:46:11.865Z,0.00
2019-03-06T03:47:11.903Z,0.00
2019-03-06T03:48:11.874Z,0.00
2019-03-06T03:49:11.844Z,0.00
2019-03-06T03:50:11.831Z,0.00
2019-03-06T03:51:11.812Z,0.00
2019-03-06T03:52:11.817Z,0.00
2019-03-06T03:53:11.797Z,0.00
2019-03-06T03:54:11.786Z,0.00
2019-03-06T03:55:11.777Z,0.00
2019-03-06T03:56:11.768Z,0.00
2019-03-06T03:57:11.748Z,0.00
2019-03-06T03:58:11.747Z,0.00
2019-03-06T03:59:11.729Z,0.00
2019-03-06T04:00:11.753Z,0.00
2019-03-06T04:01:11.714Z,0.00
2019-03-06T04:02:11.702Z,0.00
2019-03-06T04:03:11.700Z,0.00
2019-03-06T04:04:11.676Z,0.00
2019-03-06T04:05:11.667Z,0.00
2019-03-06T04:06:11.669Z,0.00
2019-03-06T04:07:11.645Z,0.00
2019-03-06T04:08:11.650Z,0.00
2019-03-06T04:09:11.624Z,0.00
2019-03-06T04:10:11.617Z,0.00
2019-03-06T04:11:11.615Z,0.00
2019-03-06T04:12:11.602Z,0.00
2019-03-06T04:13:11.596Z,0.00
2019-03-06T04:14:11.576Z,0.00
2019-03-06T04:15:11.573Z,0.00
2019-03-06T04:16:11.552Z,0.00
2019-03-06T04:17:11.552Z,0.00
2019-03-06T04:18:11.539Z,0.00
2019-03-06T04:19:11.542Z,0.00
2019-03-06T04:20:11.519Z,0.00
2019-03-06T04:21:11.514Z,0.00
2019-03-06T04:22:11.496Z,0.00
2019-03-06T04:23:11.487Z,0.00
2019-03-06T04:24:11.510Z,0.00
2019-03-06T04:25:11.460Z,0.00
2019-03-06T04:26:11.449Z,0.00
2019-03-06T04:27:11.444Z,0.00
2019-03-06T04:28:11.427Z,0.00
2019-03-06T04:29:11.420Z,0.00
2019-03-06T04:30:11.427Z,0.00
2019-03-06T04:31:11.402Z,0.00
2019-03-06T04:32:11.388Z,0.00
2019-03-06T04:33:11.384Z,0.00
2019-03-06T04:34:11.382Z,0.00
2019-03-06T04:35:11.358Z,0.00
2019-03-06T04:36:11.352Z,0.00
2019-03-06T04:37:11.346Z,0.00
2019-03-06T04:38:11.326Z,0.00
2019-03-06T04:39:11.327Z,0.00
2019-03-06T04:40:11.308Z,0.00
2019-03-06T04:41:11.299Z,0.00
2019-03-06T04:42:11.290Z,0.00
2019-03-06T04:43:11.278Z,0.00
2019-03-06T04:44:11.274Z,0.00
2019-03-06T04:45:11.277Z,0.00
2019-03-06T04:46:11.246Z,0.00
2019-03-06T04:47:11.238Z,0.00
2019-03-06T04:48:11.227Z,0.00
2019-03-06T04:49:11.216Z,0.00
2019-03-06T04:50:11.252Z,0.00
2019-03-06T04:51:13.113Z,0.00
2019-03-06T04:52:11.181Z,0.00
2019-03-06T04:53:11.174Z,0.00
2019-03-06T04:54:11.157Z,0.00
2019-03-06T04:55:11.147Z,0.00
2019-03-06T04:56:11.169Z,0.00
2019-03-06T04:57:11.130Z,0.00
2019-03-06T04:58:11.121Z,0.00
2019-03-06T04:59:11.108Z,0.00
2019-03-06T05:00:11.100Z,0.00
2019-03-06T05:01:11.097Z,0.00
2019-03-06T05:02:11.094Z,0.00
2019-03-06T05:03:11.071Z,0.00
2019-03-06T05:04:11.060Z,0.00
2019-03-06T05:05:11.044Z,0.00
2019-03-06T05:06:11.038Z,0.00
2019-03-06T05:07:11.034Z,0.00
2019-03-06T05:08:11.013Z,0.00
2019-03-06T05:09:11.008Z,0.00
2019-03-06T05:10:10.998Z,0.00
2019-03-06T05:11:10.996Z,0.00
2019-03-06T05:12:10.972Z,0.00
2019-03-06T05:13:10.961Z,0.00
2019-03-06T05:14:10.953Z,0.00
2019-03-06T05:15:18.859Z,4.00
2019-03-06T05:16:10.946Z,4.00
2019-03-06T05:17:10.926Z,0.00
2019-03-06T05:18:10.919Z,4.00
2019-03-06T05:19:10.903Z,0.00
2019-03-06T05:20:10.903Z,4.00
2019-03-06T05:21:10.887Z,4.00
2019-03-06T05:22:10.887Z,4.00
2019-03-06T05:23:10.863Z,8.00
2019-03-06T05:24:10.847Z,8.00
2019-03-06T05:25:10.836Z,8.00
2019-03-06T05:26:10.843Z,8.00
2019-03-06T05:27:10.829Z,12.00
2019-03-06T05:28:10.811Z,16.00
2019-03-06T05:29:10.804Z,16.00
2019-03-06T05:30:10.797Z,20.00
2019-03-06T05:31:10.779Z,20.00
2019-03-06T05:32:10.778Z,24.00
2019-03-06T05:33:10.759Z,28.00
2019-03-06T05:34:10.750Z,32.00
2019-03-06T05:35:10.745Z,40.00
2019-03-06T05:37:19.530Z,48.00
2019-03-06T05:38:19.494Z,56.00
2019-03-06T05:39:19.485Z,64.00
2019-03-06T05:40:19.485Z,68.00
2019-03-06T05:41:19.464Z,76.00
2019-03-06T05:42:19.454Z,80.00
2019-03-06T05:43:19.452Z,88.00
2019-03-06T05:44:19.436Z,96.00
2019-03-06T05:45:19.419Z,104.00
2019-03-06T05:46:19.406Z,116.00
2019-03-06T05:47:19.394Z,124.00
2019-03-06T05:48:19.386Z,136.00
2019-03-06T05:49:19.382Z,148.00
2019-03-06T05:50:20.429Z,156.00
2019-03-06T05:51:19.357Z,168.00
2019-03-06T05:52:19.342Z,180.00
2019-03-06T05:53:19.330Z,196.00
2019-03-06T05:54:19.336Z,208.00
2019-03-06T05:55:19.311Z,232.00
2019-03-06T05:56:19.345Z,256.00
2019-03-06T05:57:19.302Z,276.00
2019-03-06T05:58:19.329Z,304.00
2019-03-06T05:59:19.266Z,320.00
2019-03-06T06:00:19.262Z,340.00
2019-03-06T06:01:19.246Z,360.00
2019-03-06T06:02:19.243Z,384.00
2019-03-06T06:03:19.234Z,408.00
2019-03-06T06:04:19.231Z,432.00
2019-03-06T06:05:19.207Z,460.00
2019-03-06T06:06:19.192Z,496.00
2019-03-06T06:07:19.199Z,536.00
2019-03-06T06:08:19.174Z,580.00
2019-03-06T06:09:19.170Z,636.00
2019-03-06T06:10:19.156Z,680.00
2019-03-06T06:11:19.145Z,696.00
2019-03-06T06:12:19.142Z,716.00
2019-03-06T06:13:19.122Z,736.00
2019-03-06T06:14:19.115Z,756.00
2019-03-06T06:15:19.111Z,780.00
2019-03-06T06:16:19.096Z,800.00
2019-03-06T06:17:19.094Z,824.00
2019-03-06T06:18:19.063Z,840.00
2019-03-06T06:19:19.062Z,848.00
2019-03-06T06:20:19.067Z,844.00
2019-03-06T06:21:19.035Z,840.00
2019-03-06T06:22:19.043Z,848.00
2019-03-06T06:23:19.013Z,864.00
2019-03-06T06:24:19.004Z,872.00
2019-03-06T06:25:18.997Z,880.00
2019-03-06T06:26:19.021Z,892.00
2019-03-06T06:27:18.972Z,908.00
2019-03-06T06:28:18.965Z,924.00
2019-03-06T06:29:18.955Z,928.00
2019-03-06T06:30:18.944Z,932.00
2019-03-06T06:31:18.927Z,904.00
2019-03-06T06:32:18.927Z,908.00
2019-03-06T06:33:18.911Z,936.00
2019-03-06T06:34:18.900Z,952.00
2019-03-06T06:35:18.884Z,956.00
2019-03-06T06:36:18.882Z,972.00
2019-03-06T06:37:18.875Z,1016.00
2019-03-06T06:38:18.871Z,1088.00
2019-03-06T06:39:18.844Z,1188.00
2019-03-06T06:40:18.833Z,1292.00
2019-03-06T06:41:18.830Z,1480.00
2019-03-06T06:42:18.816Z,1644.00
2019-03-06T06:43:18.807Z,1760.00
2019-03-06T06:44:18.820Z,1916.00
2019-03-06T06:45:18.786Z,1996.00
2019-03-06T06:46:18.769Z,1968.00
2019-03-06T06:47:18.763Z,1924.00
2019-03-06T06:48:18.800Z,2124.00
2019-03-06T06:49:18.737Z,2224.00
2019-03-06T06:50:18.726Z,2316.00
2019-03-06T06:51:18.721Z,2296.00
2019-03-06T06:52:18.715Z,2448.00
2019-03-06T06:53:18.700Z,2732.00
2019-03-06T06:54:18.701Z,2744.00
2019-03-06T06:55:18.679Z,2676.00
2019-03-06T06:56:18.660Z,2516.00
2019-03-06T06:57:18.671Z,2452.00
2019-03-06T06:58:18.648Z,2572.00
2019-03-06T06:59:18.646Z,2908.00
2019-03-06T07:00:18.619Z,3164.00
2019-03-06T07:01:18.618Z,3340.00
2019-03-06T07:02:18.600Z,3492.00
2019-03-06T07:03:18.596Z,3740.00
2019-03-06T07:04:18.610Z,4040.00
2019-03-06T07:05:18.567Z,4056.00
2019-03-06T07:06:18.555Z,4124.00
2019-03-06T07:07:18.549Z,4236.00
2019-03-06T07:08:18.541Z,4280.00
2019-03-06T07:09:18.528Z,4436.00
2019-03-06T07:10:18.522Z,4596.00
2019-03-06T07:11:18.507Z,4660.00
2019-03-06T07:12:18.495Z,4824.00
2019-03-06T07:13:18.487Z,4844.00
2019-03-06T07:14:18.476Z,4832.00
2019-03-06T07:15:18.472Z,4680.00
2019-03-06T07:16:18.448Z,4644.00
2019-03-06T07:17:18.439Z,4768.00
2019-03-06T07:18:18.431Z,4480.00
2019-03-06T07:19:18.420Z,4596.00
2019-03-06T07:20:18.446Z,4868.00
2019-03-06T07:21:18.399Z,4672.00
2019-03-06T07:22:18.392Z,4368.00
2019-03-06T07:23:18.377Z,4144.00
2019-03-06T07:24:18.366Z,4496.00
2019-03-06T07:25:18.356Z,5188.00
2019-03-06T07:26:18.350Z,5860.00
2019-03-06T07:27:18.333Z,6148.00
2019-03-06T07:28:18.325Z,6424.00
2019-03-06T07:29:18.308Z,6560.00
2019-03-06T07:30:18.302Z,6868.00
2019-03-06T07:31:18.296Z,7204.00
2019-03-06T07:32:18.277Z,7412.00
2019-03-06T07:33:18.270Z,7732.00
2019-03-06T07:34:18.260Z,6768.00
2019-03-06T07:35:18.242Z,7916.00
2019-03-06T07:36:18.310Z,8328.00
2019-03-06T07:37:18.221Z,8456.00
2019-03-06T07:38:18.215Z,8552.00
2019-03-06T07:39:18.208Z,8476.00
2019-03-06T07:40:18.196Z,8512.00
2019-03-06T07:41:18.183Z,8864.00
2019-03-06T07:42:18.177Z,9020.00
2019-03-06T07:43:18.155Z,8668.00
2019-03-06T07:44:18.153Z,8232.00
2019-03-06T07:45:18.139Z,7864.00
2019-03-06T07:46:18.131Z,7828.00
2019-03-06T07:47:18.128Z,8508.00
2019-03-06T07:48:18.103Z,9744.00
2019-03-06T07:49:18.092Z,10144.00
2019-03-06T07:50:18.086Z,11712.00
2019-03-06T07:51:18.067Z,13824.00
2019-03-06T07:52:18.094Z,13684.00
2019-03-06T07:53:18.050Z,12840.00
2019-03-06T07:54:18.035Z,11560.00
2019-03-06T07:55:18.029Z,9992.00
2019-03-06T07:56:18.020Z,9220.00
2019-03-06T07:57:18.009Z,7948.00
2019-03-06T07:58:18.012Z,5404.00
2019-03-06T07:59:17.991Z,5420.00
2019-03-06T08:00:17.975Z,5304.00
2019-03-06T08:01:17.966Z,6616.00
2019-03-06T08:02:17.953Z,6852.00
2019-03-06T08:03:17.951Z,8220.00
2019-03-06T08:04:17.942Z,11464.00
2019-03-06T08:05:17.925Z,11352.00
2019-03-06T08:06:17.907Z,8284.00
2019-03-06T08:07:17.902Z,10884.00
2019-03-06T08:08:17.891Z,7316.00
2019-03-06T08:09:17.877Z,7132.00
2019-03-06T08:10:17.894Z,9192.00
2019-03-06T08:11:17.849Z,12508.00
2019-03-06T08:12:17.843Z,16416.00
2019-03-06T08:13:17.838Z,18752.00
2019-03-06T08:14:22.209Z,18240.00
2019-03-06T08:15:17.827Z,18016.00
2019-03-06T08:16:17.821Z,19744.00
2019-03-06T08:17:17.784Z,18784.00
2019-03-06T08:18:17.773Z,20800.00
2019-03-06T08:19:17.771Z,23296.00
2019-03-06T08:20:17.775Z,30432.00
2019-03-06T08:21:17.769Z,31520.00
2019-03-06T08:22:17.739Z,29600.00
2019-03-06T08:23:17.719Z,28032.00
2019-03-06T08:24:17.709Z,22944.00
2019-03-06T08:25:17.697Z,17312.00
2019-03-06T08:26:17.702Z,13800.00
2019-03-06T08:27:17.680Z,12672.00
2019-03-06T08:28:17.670Z,11972.00
2019-03-06T08:29:17.654Z,11892.00
2019-03-06T08:30:17.649Z,11456.00
2019-03-06T08:31:17.678Z,11044.00
2019-03-06T08:32:17.631Z,10824.00
2019-03-06T08:33:18.394Z,10952.00
2019-03-06T08:34:17.605Z,11500.00
2019-03-06T08:35:17.593Z,12544.00
2019-03-06T08:36:17.579Z,12624.00
2019-03-06T08:37:17.616Z,12072.00
2019-03-06T08:38:17.567Z,13228.00
2019-03-06T08:39:17.553Z,13352.00
2019-03-06T08:40:17.538Z,11048.00
2019-03-06T08:41:17.529Z,10284.00
2019-03-06T08:42:17.577Z,12464.00
2019-03-06T08:43:17.505Z,13400.00
2019-03-06T08:44:17.491Z,11220.00
2019-03-06T08:45:17.483Z,10656.00
2019-03-06T08:46:17.472Z,8972.00
2019-03-06T08:47:17.462Z,11560.00
2019-03-06T08:48:17.460Z,13488.00
2019-03-06T08:49:17.445Z,10016.00
2019-03-06T08:50:17.425Z,8504.00
2019-03-06T08:51:17.412Z,13736.00
2019-03-06T08:52:17.404Z,16992.00
2019-03-06T08:53:17.449Z,16672.00
2019-03-06T08:54:17.391Z,16256.00
2019-03-06T08:55:17.403Z,16192.00
2019-03-06T08:56:17.357Z,14600.00
2019-03-06T08:57:25.286Z,8516.00
2019-03-06T08:58:17.340Z,7040.00
2019-03-06T08:59:18.697Z,8592.00
2019-03-06T09:00:17.317Z,10280.00
2019-03-06T09:01:17.325Z,14216.00
2019-03-06T09:02:17.297Z,14596.00
2019-03-06T09:03:17.282Z,14568.00
2019-03-06T09:04:17.288Z,14316.00
2019-03-06T09:05:17.271Z,12492.00
2019-03-06T09:06:25.803Z,14352.00
2019-03-06T09:07:17.239Z,14864.00
2019-03-06T09:08:17.239Z,12076.00
2019-03-06T09:09:17.245Z,12304.00
2019-03-06T09:10:17.210Z,13628.00
2019-03-06T09:11:17.197Z,12488.00
2019-03-06T09:12:17.183Z,11608.00
2019-03-06T09:13:17.177Z,12744.00
2019-03-06T09:14:17.161Z,12376.00
2019-03-06T09:15:17.164Z,12648.00
2019-03-06T09:16:17.143Z,12512.00
2019-03-06T09:17:17.134Z,13020.00
2019-03-06T09:18:17.123Z,13412.00
2019-03-06T09:19:17.115Z,13736.00
2019-03-06T09:20:17.106Z,13828.00
2019-03-06T09:21:17.084Z,13884.00
2019-03-06T09:22:17.077Z,13628.00
2019-03-06T09:23:23.054Z,13604.00
2019-03-06T09:24:18.062Z,13764.00
2019-03-06T09:25:17.062Z,13460.00
2019-03-06T09:26:17.037Z,13428.00
2019-03-06T09:27:17.050Z,13268.00
2019-03-06T09:28:17.013Z,12800.00
2019-03-06T09:29:16.996Z,12272.00
2019-03-06T09:30:16.986Z,11984.00
2019-03-06T09:31:16.980Z,11788.00
2019-03-06T09:32:16.971Z,11820.00
2019-03-06T09:33:16.966Z,11316.00
2019-03-06T09:34:16.948Z,11436.00
2019-03-06T09:35:16.942Z,11344.00
2019-03-06T09:36:18.989Z,11228.00
2019-03-06T09:37:16.923Z,11208.00
2019-03-06T09:38:16.908Z,10064.00
2019-03-06T09:39:16.890Z,10316.00
2019-03-06T09:40:16.882Z,10004.00
2019-03-06T09:41:16.890Z,9896.00
2019-03-06T09:42:18.474Z,10152.00
2019-03-06T09:43:16.850Z,9220.00
2019-03-06T09:44:16.842Z,9096.00
2019-03-06T09:45:16.823Z,8968.00
2019-03-06T09:46:16.818Z,9196.00
2019-03-06T09:47:16.827Z,9016.00
2019-03-06T09:48:16.796Z,9160.00
2019-03-06T09:49:16.784Z,9044.00
2019-03-06T09:50:16.771Z,9144.00
2019-03-06T09:51:16.761Z,9276.00
2019-03-06T09:52:16.757Z,9584.00
2019-03-06T09:53:16.736Z,9320.00
2019-03-06T09:54:16.726Z,9248.00
2019-03-06T09:55:16.721Z,8932.00
2019-03-06T09:56:16.713Z,10320.00
2019-03-06T09:57:16.708Z,11376.00
2019-03-06T09:58:16.711Z,12852.00
2019-03-06T09:59:16.675Z,12900.00
2019-03-06T10:00:16.668Z,12712.00
2019-03-06T10:01:16.651Z,11316.00
2019-03-06T10:02:16.643Z,10144.00
2019-03-06T10:03:16.625Z,10748.00
2019-03-06T10:04:16.624Z,11580.00
2019-03-06T10:05:16.617Z,11888.00
2019-03-06T10:06:16.595Z,12320.00
2019-03-06T10:07:16.595Z,13176.00
2019-03-06T10:08:16.572Z,12156.00
2019-03-06T10:09:16.567Z,11500.00
2019-03-06T10:10:16.551Z,10108.00
2019-03-06T10:11:17.292Z,9456.00
2019-03-06T10:12:16.541Z,8768.00
2019-03-06T10:13:16.518Z,8608.00
2019-03-06T10:14:16.514Z,9892.00
2019-03-06T10:15:16.504Z,9192.00
2019-03-06T10:16:16.484Z,7852.00
2019-03-06T10:17:16.488Z,7516.00
2019-03-06T10:18:16.476Z,9544.00
2019-03-06T10:19:16.470Z,8080.00
2019-03-06T10:20:24.905Z,7896.00
2019-03-06T10:21:17.441Z,7192.00
2019-03-06T10:22:16.424Z,7228.00
2019-03-06T10:23:16.417Z,8520.00
2019-03-06T10:24:16.426Z,11004.00
2019-03-06T10:25:16.392Z,14668.00
2019-03-06T10:26:16.381Z,12244.00
2019-03-06T10:27:16.368Z,11400.00
2019-03-06T10:28:16.361Z,10872.00
2019-03-06T10:29:16.353Z,10544.00
2019-03-06T10:30:18.621Z,11688.00
2019-03-06T10:31:16.321Z,11340.00
2019-03-06T10:32:16.309Z,10676.00
2019-03-06T10:33:16.301Z,10116.00
2019-03-06T10:34:16.295Z,10068.00
2019-03-06T10:35:16.290Z,10300.00
2019-03-06T10:36:16.281Z,10028.00
2019-03-06T10:37:18.041Z,10804.00
2019-03-06T10:38:16.841Z,10156.00
2019-03-06T10:39:16.237Z,11288.00
2019-03-06T10:40:16.227Z,10988.00
2019-03-06T10:41:16.218Z,9884.00
2019-03-06T10:42:16.215Z,9976.00
2019-03-06T10:43:16.195Z,11068.00
2019-03-06T10:44:16.184Z,11076.00
2019-03-06T10:45:16.172Z,11972.00
2019-03-06T10:46:16.180Z,13000.00
2019-03-06T10:47:16.151Z,13448.00
2019-03-06T10:48:16.134Z,12904.00
2019-03-06T10:49:16.123Z,12928.00
2019-03-06T10:50:16.117Z,12036.00
2019-03-06T10:51:16.101Z,9816.00
2019-03-06T10:52:16.107Z,10120.00
2019-03-06T10:53:16.090Z,10144.00
2019-03-06T10:54:16.071Z,11160.00
2019-03-06T10:55:16.062Z,11692.00
2019-03-06T10:56:16.054Z,12096.00
2019-03-06T10:57:16.045Z,12868.00
2019-03-06T10:58:16.029Z,12484.00
2019-03-06T10:59:16.013Z,12800.00
2019-03-06T11:00:16.009Z,12608.00
2019-03-06T11:01:15.997Z,12640.00
2019-03-06T11:02:15.990Z,12988.00
2019-03-06T11:03:15.970Z,13632.00
2019-03-06T11:04:15.963Z,13492.00
2019-03-06T11:05:15.953Z,13976.00
2019-03-06T11:06:15.936Z,13620.00
2019-03-06T11:07:15.981Z,13564.00
2019-03-06T11:08:15.919Z,13176.00
2019-03-06T11:09:15.905Z,12920.00
2019-03-06T11:10:23.409Z,12436.00
2019-03-06T11:11:16.879Z,12548.00
2019-03-06T11:12:15.876Z,12536.00
2019-03-06T11:13:15.934Z,12212.00
2019-03-06T11:14:15.848Z,12088.00
2019-03-06T11:15:15.843Z,12052.00
2019-03-06T11:16:17.984Z,12164.00
2019-03-06T11:17:15.817Z,12032.00
2019-03-06T11:18:16.496Z,11904.00
2019-03-06T11:19:15.835Z,12148.00
2019-03-06T11:20:15.784Z,12024.00
2019-03-06T11:21:15.779Z,11832.00
2019-03-06T11:22:15.762Z,11628.00
2019-03-06T11:23:15.751Z,11628.00
2019-03-06T11:24:15.746Z,11768.00
2019-03-06T11:25:15.744Z,11676.00
2019-03-06T11:26:15.725Z,11392.00
2019-03-06T11:27:15.710Z,11252.00
2019-03-06T11:28:15.702Z,11460.00
2019-03-06T11:29:15.729Z,11296.00
2019-03-06T11:30:15.675Z,11288.00
2019-03-06T11:31:15.665Z,11636.00
2019-03-06T11:32:15.658Z,11984.00
2019-03-06T11:33:15.645Z,11788.00
2019-03-06T11:34:15.637Z,11804.00
2019-03-06T11:35:15.629Z,11868.00
2019-03-06T11:36:15.613Z,12144.00
2019-03-06T11:37:15.598Z,12620.00
2019-03-06T11:38:15.588Z,12780.00
2019-03-06T11:39:15.576Z,13088.00
2019-03-06T11:40:15.579Z,12652.00
2019-03-06T11:41:15.555Z,12144.00
2019-03-06T11:42:15.549Z,12520.00
2019-03-06T11:43:15.534Z,12180.00
2019-03-06T11:44:15.527Z,11216.00
2019-03-06T11:45:15.556Z,10328.00
2019-03-06T11:46:15.506Z,10104.00
2019-03-06T11:47:15.489Z,9716.00
2019-03-06T11:48:15.481Z,10068.00
2019-03-06T11:49:15.473Z,9856.00
2019-03-06T11:50:15.461Z,9640.00
2019-03-06T11:51:15.452Z,9616.00
2019-03-06T11:52:15.436Z,9668.00
2019-03-06T11:53:15.428Z,9972.00
2019-03-06T11:54:15.419Z,9736.00
2019-03-06T11:55:15.406Z,9648.00
2019-03-06T11:56:15.397Z,9924.00
2019-03-06T11:57:15.389Z,10456.00
2019-03-06T11:58:15.368Z,11192.00
2019-03-06T11:59:15.358Z,11380.00
2019-03-06T12:00:15.354Z,11168.00
2019-03-06T12:01:15.851Z,11432.00
2019-03-06T12:02:15.329Z,11912.00
2019-03-06T12:03:15.320Z,12152.00
2019-03-06T12:04:15.306Z,12212.00
2019-03-06T12:05:15.296Z,11892.00
2019-03-06T12:06:15.280Z,11852.00
2019-03-06T12:07:15.280Z,12316.00
2019-03-06T12:08:15.264Z,13180.00
2019-03-06T12:09:15.247Z,12448.00
2019-03-06T12:10:15.236Z,12076.00
2019-03-06T12:11:15.232Z,11600.00
2019-03-06T12:12:15.226Z,11620.00
2019-03-06T12:13:15.202Z,11408.00
2019-03-06T12:14:15.192Z,11032.00
2019-03-06T12:15:15.181Z,10908.00
2019-03-06T12:16:15.170Z,10828.00
2019-03-06T12:17:15.179Z,10288.00
2019-03-06T12:18:15.154Z,10500.00
2019-03-06T12:19:15.139Z,10116.00
2019-03-06T12:20:15.131Z,9320.00
2019-03-06T12:21:15.115Z,9212.00
2019-03-06T12:22:15.149Z,9364.00
2019-03-06T12:23:15.098Z,9052.00
2019-03-06T12:24:15.086Z,8540.00
2019-03-06T12:25:15.072Z,9520.00
2019-03-06T12:26:15.066Z,9776.00
2019-03-06T12:27:15.054Z,9968.00
2019-03-06T12:28:15.076Z,10044.00
2019-03-06T12:29:15.029Z,10156.00
2019-03-06T12:30:15.014Z,10584.00
2019-03-06T12:31:15.004Z,10776.00
2019-03-06T12:32:14.999Z,11620.00